createdAt,value
2018-06-21T00:02:26.762Z,11.87
2018-06-21T00:04:56.038Z,12.60
2018-06-21T00:07:25.312Z,13.03
2018-06-21T00:09:54.500Z,12.50
2018-06-21T00:12:23.737Z,12.00
2018-06-21T00:14:52.963Z,12.03
2018-06-21T00:17:22.373Z,11.90
2018-06-21T00:19:51.543Z,13.67
2018-06-21T00:22:20.746Z,13.20
2018-06-21T00:24:50.011Z,13.27
2018-06-21T00:27:19.300Z,12.63
2018-06-21T00:29:48.592Z,12.67
2018-06-21T00:32:17.898Z,14.03
2018-06-21T00:34:47.315Z,11.40
2018-06-21T00:37:16.588Z,13.77
2018-06-21T00:39:45.858Z,12.53
2018-06-21T00:42:15.086Z,14.00
2018-06-21T00:44:44.307Z,12.90
2018-06-21T00:47:13.597Z,13.50
2018-06-21T00:49:42.816Z,12.97
2018-06-21T00:52:12.053Z,13.53
2018-06-21T00:54:41.369Z,11.63
2018-06-21T00:57:10.664Z,12.93
2018-06-21T00:59:39.982Z,13.73
2018-06-21T01:02:09.185Z,14.70
2018-06-21T01:04:38.356Z,13.80
2018-06-21T01:07:07.617Z,13.13
2018-06-21T01:09:36.836Z,12.80
2018-06-21T01:12:06.048Z,12.70
2018-06-21T01:14:35.311Z,13.60
2018-06-21T01:17:04.488Z,14.10
2018-06-21T01:19:33.672Z,12.47
2018-06-21T01:22:02.854Z,13.90
2018-06-21T01:24:32.063Z,11.70
2018-06-21T01:27:01.272Z,11.60
2018-06-21T01:29:30.505Z,13.37
2018-06-21T01:31:59.734Z,13.13
2018-06-21T01:34:28.905Z,13.07
2018-06-21T01:36:58.111Z,13.50
2018-06-21T01:39:27.323Z,13.60
2018-06-21T01:41:56.515Z,12.47
2018-06-21T01:44:25.839Z,13.23
2018-06-21T01:46:55.538Z,13.97
2018-06-21T01:49:24.735Z,13.20
2018-06-21T01:51:53.985Z,14.50
2018-06-21T01:54:23.240Z,15.47
2018-06-21T01:56:52.507Z,13.47
2018-06-21T01:59:21.698Z,14.40
2018-06-21T02:01:50.890Z,15.10
2018-06-21T02:04:20.107Z,14.73
2018-06-21T02:06:49.265Z,13.27
2018-06-21T02:09:18.467Z,14.17
2018-06-21T02:11:47.691Z,14.00
2018-06-21T02:14:16.886Z,15.23
2018-06-21T02:16:46.055Z,14.70
2018-06-21T02:19:15.225Z,13.30
2018-06-21T02:21:44.472Z,14.07
2018-06-21T02:24:13.765Z,14.90
2018-06-21T02:26:43.020Z,15.93
2018-06-21T02:29:12.278Z,14.83
2018-06-21T02:31:41.479Z,15.03
2018-06-21T02:34:10.765Z,14.00
2018-06-21T02:36:39.944Z,16.17
2018-06-21T02:39:09.906Z,15.63
2018-06-21T02:41:39.127Z,15.97
2018-06-21T02:44:08.379Z,15.37
2018-06-21T02:46:37.619Z,14.90
2018-06-21T02:49:06.814Z,16.50
2018-06-21T02:51:35.981Z,16.63
2018-06-21T02:54:05.215Z,15.37
2018-06-21T02:56:34.428Z,14.43
2018-06-21T02:59:03.636Z,13.70
2018-06-21T03:01:32.856Z,14.87
2018-06-21T03:04:02.063Z,14.77
2018-06-21T03:06:31.195Z,14.63
2018-06-21T03:09:00.444Z,14.37
2018-06-21T03:11:29.598Z,15.80
2018-06-21T03:13:58.805Z,13.70
2018-06-21T03:16:27.975Z,15.77
2018-06-21T03:18:57.137Z,14.60
2018-06-21T03:21:26.294Z,13.70
2018-06-21T03:23:55.664Z,14.60
2018-06-21T03:26:24.846Z,13.90
2018-06-21T03:28:54.042Z,13.60
2018-06-21T03:31:23.518Z,13.30
2018-06-21T03:33:52.780Z,14.40
2018-06-21T03:36:21.984Z,14.57
2018-06-21T03:38:51.219Z,14.00
2018-06-21T03:41:20.436Z,11.93
2018-06-21T03:43:49.636Z,13.60
2018-06-21T03:46:18.802Z,12.93
2018-06-21T03:48:48.010Z,13.87
2018-06-21T03:51:17.142Z,13.93
2018-06-21T03:53:46.308Z,12.57
2018-06-21T03:56:15.511Z,13.30
2018-06-21T03:58:44.750Z,12.43
2018-06-21T04:01:14.004Z,13.77
2018-06-21T04:03:43.231Z,11.80
2018-06-21T04:06:12.415Z,13.80
2018-06-21T04:08:41.567Z,13.40
2018-06-21T04:11:10.811Z,12.40
2018-06-21T04:13:39.994Z,12.23
2018-06-21T04:16:09.169Z,12.37
2018-06-21T04:18:38.498Z,12.07
2018-06-21T04:21:09.119Z,12.30
2018-06-21T04:23:38.277Z,12.83
2018-06-21T04:26:07.445Z,12.00
2018-06-21T04:28:36.597Z,12.70
2018-06-21T04:31:05.741Z,12.23
2018-06-21T04:33:34.909Z,13.60
2018-06-21T04:36:04.089Z,12.00
2018-06-21T04:38:33.270Z,12.40
2018-06-21T04:41:02.395Z,13.00
2018-06-21T04:43:31.643Z,11.53
2018-06-21T04:46:00.899Z,12.40
2018-06-21T04:48:30.115Z,12.20
2018-06-21T04:50:59.248Z,12.40
2018-06-21T04:53:28.480Z,10.80
2018-06-21T04:55:57.630Z,11.90
2018-06-21T04:58:26.844Z,11.33
2018-06-21T05:00:56.068Z,11.30
2018-06-21T05:03:25.296Z,10.73
2018-06-21T05:05:54.519Z,11.73
2018-06-21T05:08:23.701Z,10.77
2018-06-21T05:10:52.859Z,10.90
2018-06-21T05:13:22.139Z,10.13
2018-06-21T05:15:51.393Z,11.60
2018-06-21T05:18:20.670Z,10.27
2018-06-21T05:20:49.787Z,10.40
2018-06-21T05:23:18.945Z,11.47
2018-06-21T05:25:48.181Z,10.73
2018-06-21T05:28:17.338Z,10.57
2018-06-21T05:30:46.474Z,9.53
2018-06-21T05:33:16.594Z,10.10
2018-06-21T05:35:45.712Z,10.80
2018-06-21T05:38:14.835Z,10.07
2018-06-21T05:40:44.013Z,11.47
2018-06-21T05:43:13.146Z,10.17
2018-06-21T05:45:42.257Z,9.40
2018-06-21T05:48:11.427Z,9.73
2018-06-21T05:50:40.561Z,9.60
2018-06-21T05:53:09.731Z,10.23
2018-06-21T05:55:38.858Z,9.80
2018-06-21T05:58:08.040Z,11.00
2018-06-21T06:00:37.206Z,11.10
2018-06-21T06:03:06.409Z,9.37
2018-06-21T06:05:35.534Z,10.50
2018-06-21T06:08:04.709Z,11.63
2018-06-21T06:10:33.906Z,10.73
2018-06-21T06:13:03.073Z,10.47
2018-06-21T06:15:32.230Z,9.60
2018-06-21T06:18:01.362Z,10.60
2018-06-21T06:20:30.476Z,9.87
2018-06-21T06:22:59.622Z,10.20
2018-06-21T06:25:28.842Z,10.80
2018-06-21T06:27:57.995Z,9.43
2018-06-21T06:30:27.170Z,9.40
2018-06-21T06:32:56.329Z,8.83
2018-06-21T06:35:30.886Z,9.00
2018-06-21T06:38:00.951Z,8.63
2018-06-21T06:40:30.307Z,7.30
2018-06-21T06:42:59.397Z,8.27
2018-06-21T06:45:28.579Z,7.23
2018-06-21T06:47:57.727Z,8.47
2018-06-21T06:50:26.932Z,7.37
2018-06-21T06:52:56.069Z,7.90
2018-06-21T06:55:25.181Z,8.40
2018-06-21T06:57:54.366Z,7.07
2018-06-21T07:00:23.595Z,7.70
2018-06-21T07:02:52.827Z,7.07
2018-06-21T07:05:21.926Z,6.17
2018-06-21T07:07:51.070Z,6.57
2018-06-21T07:10:20.256Z,6.00
2018-06-21T07:12:49.422Z,6.00
2018-06-21T07:15:18.616Z,6.20
2018-06-21T07:17:47.737Z,6.70
2018-06-21T07:20:16.896Z,5.83
2018-06-21T07:22:46.024Z,5.80
2018-06-21T07:25:15.177Z,6.13
2018-06-21T07:27:44.272Z,5.30
2018-06-21T07:30:13.523Z,6.43
2018-06-21T07:32:42.742Z,5.90
2018-06-21T07:35:12.088Z,5.23
2018-06-21T07:37:41.270Z,5.83
2018-06-21T07:40:10.432Z,5.80
2018-06-21T07:42:41.717Z,5.50
2018-06-21T07:45:10.871Z,5.33
2018-06-21T07:47:39.970Z,6.47
2018-06-21T07:50:09.170Z,5.40
2018-06-21T07:52:38.327Z,6.20
2018-06-21T07:55:07.551Z,5.90
2018-06-21T07:57:36.709Z,5.90
2018-06-21T08:00:05.908Z,5.33
2018-06-21T08:02:35.124Z,5.70
2018-06-21T08:05:04.257Z,4.93
2018-06-21T08:07:33.401Z,5.63
2018-06-21T08:10:02.601Z,5.30
2018-06-21T08:12:31.722Z,5.63
2018-06-21T08:15:00.863Z,5.73
2018-06-21T08:17:30.036Z,5.43
2018-06-21T08:19:59.237Z,5.30
2018-06-21T08:22:28.479Z,5.37
2018-06-21T08:24:57.634Z,4.90
2018-06-21T08:27:26.737Z,5.00
2018-06-21T08:29:55.921Z,5.60
2018-06-21T08:32:25.128Z,6.00
2018-06-21T08:34:54.286Z,4.93
2018-06-21T08:37:23.385Z,5.20
2018-06-21T08:39:52.604Z,5.60
2018-06-21T08:42:21.734Z,5.83
2018-06-21T08:44:50.937Z,6.13
2018-06-21T08:47:20.235Z,5.77
2018-06-21T08:49:49.418Z,5.33
2018-06-21T08:52:18.497Z,4.70
2018-06-21T08:54:47.661Z,5.53
2018-06-21T08:57:16.877Z,5.40
2018-06-21T08:59:46.033Z,5.60
2018-06-21T09:02:15.293Z,5.90
2018-06-21T09:04:44.489Z,5.43
2018-06-21T09:07:13.630Z,5.80
2018-06-21T09:09:42.810Z,6.40
2018-06-21T09:12:11.931Z,6.00
2018-06-21T09:14:41.178Z,5.73
2018-06-21T09:17:10.356Z,4.70
2018-06-21T09:19:39.534Z,5.43
2018-06-21T09:22:08.671Z,5.33
2018-06-21T09:24:37.862Z,4.30
2018-06-21T09:27:07.106Z,5.40
2018-06-21T09:29:36.478Z,5.70
2018-06-21T09:32:05.578Z,4.60
2018-06-21T09:34:34.800Z,5.73
2018-06-21T09:37:04.013Z,4.87
2018-06-21T09:39:38.559Z,5.20
2018-06-21T09:42:12.909Z,4.90
2018-06-21T09:44:47.434Z,4.23
2018-06-21T09:47:21.977Z,4.77
2018-06-21T09:49:51.091Z,4.37
2018-06-21T09:52:20.244Z,4.43
2018-06-21T09:54:49.388Z,4.90
2018-06-21T09:57:18.626Z,3.30
2018-06-21T09:59:47.815Z,3.77
2018-06-21T10:02:16.957Z,3.00
2018-06-21T10:04:46.089Z,3.77
2018-06-21T10:07:15.268Z,4.10
2018-06-21T10:09:44.415Z,3.50
2018-06-21T10:12:13.592Z,3.43
2018-06-21T10:14:42.760Z,4.13
2018-06-21T10:17:11.938Z,3.20
2018-06-21T10:19:42.068Z,3.43
2018-06-21T10:22:11.154Z,3.33
2018-06-21T10:24:40.232Z,3.20
2018-06-21T10:27:09.402Z,3.60
2018-06-21T10:29:38.531Z,4.00
2018-06-21T10:32:07.791Z,4.40
2018-06-21T10:34:36.972Z,3.40
2018-06-21T10:37:06.112Z,3.77
2018-06-21T10:39:35.257Z,3.57
2018-06-21T10:42:04.349Z,3.47
2018-06-21T10:44:33.485Z,3.47
2018-06-21T10:47:02.599Z,3.13
2018-06-21T10:49:31.744Z,7.70
2018-06-21T10:52:00.921Z,7.23
2018-06-21T10:54:30.084Z,6.53
2018-06-21T10:56:59.227Z,6.23
2018-06-21T10:59:28.398Z,5.83
2018-06-21T11:01:57.544Z,4.90
2018-06-21T11:04:26.661Z,4.40
2018-06-21T11:06:55.802Z,4.53
2018-06-21T11:09:25.230Z,2.83
2018-06-21T11:11:54.443Z,2.63
2018-06-21T11:14:23.618Z,2.30
2018-06-21T11:16:52.796Z,2.33
2018-06-21T11:19:21.896Z,2.13
2018-06-21T11:21:51.047Z,2.50
2018-06-21T11:24:20.265Z,1.60
2018-06-21T11:26:49.383Z,2.23
2018-06-21T11:29:18.468Z,1.77
2018-06-21T11:31:47.598Z,1.60
2018-06-21T11:34:16.824Z,1.47
2018-06-21T11:36:45.964Z,1.67
2018-06-21T11:39:15.128Z,1.80
2018-06-21T11:41:44.240Z,1.70
2018-06-21T11:44:13.421Z,1.53
2018-06-21T11:46:42.632Z,1.23
2018-06-21T11:49:11.842Z,1.50
2018-06-21T11:51:41.137Z,1.53
2018-06-21T11:54:10.301Z,1.23
2018-06-21T11:56:39.508Z,1.70
2018-06-21T11:59:08.701Z,1.80
2018-06-21T12:01:37.844Z,1.80
2018-06-21T12:04:06.997Z,1.20
2018-06-21T12:06:36.167Z,1.40
2018-06-21T12:09:08.897Z,1.40
2018-06-21T12:11:38.069Z,1.20
2018-06-21T12:14:07.565Z,1.60
2018-06-21T12:16:37.083Z,1.60
2018-06-21T12:19:06.329Z,1.60
2018-06-21T12:21:36.145Z,1.50
2018-06-21T12:24:05.797Z,1.50
2018-06-21T12:26:35.137Z,1.40
2018-06-21T12:29:04.300Z,1.57
2018-06-21T12:31:38.353Z,1.40
2018-06-21T12:34:08.623Z,2.00
2018-06-21T12:36:38.405Z,2.07
2018-06-21T12:39:08.793Z,2.50
2018-06-21T12:41:39.218Z,1.73
2018-06-21T12:44:08.357Z,1.83
2018-06-21T12:46:38.470Z,1.90
2018-06-21T12:49:07.621Z,2.30
2018-06-21T12:51:37.536Z,2.80
2018-06-21T12:54:07.405Z,2.50
2018-06-21T12:56:36.573Z,2.83
2018-06-21T12:59:05.780Z,2.33
2018-06-21T13:01:34.954Z,2.40
2018-06-21T13:04:04.226Z,2.87
2018-06-21T13:06:33.465Z,2.40
2018-06-21T13:09:19.801Z,2.20
2018-06-21T13:12:34.665Z,2.80
2018-06-21T13:15:03.822Z,3.10
2018-06-21T13:17:33.193Z,2.83
2018-06-21T13:20:03.565Z,2.67
2018-06-21T13:22:32.649Z,2.67
2018-06-21T13:25:01.855Z,2.30
2018-06-21T13:27:30.980Z,2.40
2018-06-21T13:30:00.185Z,2.23
2018-06-21T13:32:29.396Z,2.70
2018-06-21T13:34:58.533Z,1.80
2018-06-21T13:37:27.758Z,1.70
2018-06-21T13:39:56.905Z,1.70
2018-06-21T13:42:26.086Z,1.80
2018-06-21T13:44:55.026Z,1.87
2018-06-21T13:47:24.209Z,1.97
2018-06-21T13:49:53.361Z,1.80
2018-06-21T13:52:23.497Z,2.00
2018-06-21T13:54:52.635Z,1.33
2018-06-21T13:57:21.813Z,2.07
2018-06-21T13:59:51.075Z,1.90
2018-06-21T14:02:20.232Z,2.00
2018-06-21T14:04:49.394Z,2.10
2018-06-21T14:07:18.569Z,2.00
2018-06-21T14:09:47.747Z,1.97
2018-06-21T14:12:16.913Z,1.90
2018-06-21T14:14:46.041Z,2.40
2018-06-21T14:17:16.146Z,1.80
2018-06-21T14:19:45.262Z,2.00
2018-06-21T14:22:14.491Z,2.17
2018-06-21T14:24:43.816Z,2.23
2018-06-21T14:27:12.996Z,1.60
2018-06-21T14:29:42.052Z,2.40
2018-06-21T14:32:11.256Z,1.90
2018-06-21T14:34:40.386Z,2.00
2018-06-21T14:37:09.554Z,1.70
2018-06-21T14:39:38.759Z,1.80
2018-06-21T14:42:08.163Z,2.10
2018-06-21T14:44:37.435Z,1.60
2018-06-21T14:47:06.592Z,1.70
2018-06-21T14:49:35.808Z,1.93
2018-06-21T14:52:04.967Z,2.00
2018-06-21T14:54:34.253Z,1.90
2018-06-21T14:57:03.436Z,1.73
2018-06-21T14:59:32.710Z,1.60
2018-06-21T15:02:01.831Z,1.50
2018-06-21T15:04:30.991Z,2.63
2018-06-21T15:07:00.129Z,1.60
2018-06-21T15:09:29.221Z,1.53
2018-06-21T15:11:58.393Z,1.67
2018-06-21T15:14:27.535Z,1.60
2018-06-21T15:16:56.745Z,1.97
2018-06-21T15:19:25.907Z,1.57
2018-06-21T15:21:55.054Z,1.53
2018-06-21T15:24:24.240Z,1.60
2018-06-21T15:26:53.430Z,1.73
2018-06-21T15:29:22.599Z,1.83
2018-06-21T15:31:51.732Z,1.50
2018-06-21T15:34:20.867Z,1.50
2018-06-21T15:36:50.013Z,1.60
2018-06-21T15:39:23.053Z,1.73
2018-06-21T15:41:52.247Z,1.50
2018-06-21T15:44:21.449Z,1.97
2018-06-21T15:46:50.554Z,2.20
2018-06-21T15:49:19.710Z,1.80
2018-06-21T15:51:48.915Z,1.47
2018-06-21T15:54:18.100Z,1.97
2018-06-21T15:56:47.331Z,1.77
2018-06-21T15:59:16.461Z,1.60
2018-06-21T16:01:45.646Z,2.07
2018-06-21T16:04:14.831Z,2.10
2018-06-21T16:06:44.018Z,1.80
2018-06-21T16:09:13.149Z,2.10
2018-06-21T16:11:42.329Z,1.73
2018-06-21T16:14:13.947Z,1.80
2018-06-21T16:16:43.073Z,1.70
2018-06-21T16:19:12.258Z,1.80
2018-06-21T16:21:41.385Z,1.60
2018-06-21T16:24:10.599Z,1.60
2018-06-21T16:26:39.656Z,1.50
2018-06-21T16:29:08.831Z,2.00
2018-06-21T16:31:37.969Z,1.60
2018-06-21T16:34:07.118Z,1.63
2018-06-21T16:36:36.314Z,1.63
2018-06-21T16:39:09.333Z,1.77
2018-06-21T16:41:38.642Z,1.70
2018-06-21T16:44:07.835Z,1.60
2018-06-21T16:46:36.938Z,2.03
2018-06-21T16:49:06.546Z,2.13
2018-06-21T16:51:35.789Z,1.53
2018-06-21T16:54:04.932Z,1.80
2018-06-21T16:56:34.919Z,2.37
2018-06-21T16:59:04.135Z,1.67
2018-06-21T17:01:33.404Z,1.60
2018-06-21T17:04:03.046Z,1.33
2018-06-21T17:06:32.373Z,1.73
2018-06-21T17:09:01.667Z,1.60
2018-06-21T17:11:30.763Z,1.60
2018-06-21T17:13:59.982Z,1.90
2018-06-21T17:16:29.165Z,1.87
2018-06-21T17:18:58.384Z,1.60
2018-06-21T17:21:27.582Z,2.13
2018-06-21T17:23:56.715Z,1.60
2018-06-21T17:26:25.882Z,1.97
2018-06-21T17:28:55.097Z,1.80
2018-06-21T17:31:24.309Z,1.60
2018-06-21T17:33:53.476Z,1.97
2018-06-21T17:36:22.631Z,1.67
2018-06-21T17:38:51.768Z,1.97
2018-06-21T17:41:20.946Z,1.53
2018-06-21T17:43:50.141Z,1.63
2018-06-21T17:46:19.276Z,1.77
2018-06-21T17:48:48.451Z,1.43
2018-06-21T17:51:17.609Z,1.57
2018-06-21T17:53:46.726Z,1.70
2018-06-21T17:56:15.946Z,1.67
2018-06-21T17:58:45.066Z,1.60
2018-06-21T18:01:14.144Z,2.13
2018-06-21T18:03:43.314Z,2.00
2018-06-21T18:06:12.489Z,1.70
2018-06-21T18:08:41.697Z,1.63
2018-06-21T18:11:10.875Z,2.77
2018-06-21T18:13:40.029Z,1.70
2018-06-21T18:16:09.276Z,1.93
2018-06-21T18:18:38.486Z,1.57
2018-06-21T18:21:07.714Z,1.40
2018-06-21T18:23:36.779Z,2.53
2018-06-21T18:26:06.577Z,1.60
2018-06-21T18:28:35.824Z,1.43
2018-06-21T18:31:04.991Z,1.30
2018-06-21T18:33:35.221Z,1.27
2018-06-21T18:36:04.672Z,1.50
2018-06-21T18:38:33.826Z,1.27
2018-06-21T18:41:02.994Z,1.87
2018-06-21T18:43:32.146Z,1.30
2018-06-21T18:46:01.333Z,1.60
2018-06-21T18:48:30.461Z,1.43
2018-06-21T18:50:59.606Z,1.20
2018-06-21T18:53:28.705Z,1.40
2018-06-21T18:55:57.970Z,1.40
2018-06-21T18:58:27.142Z,1.30
2018-06-21T19:00:56.282Z,1.23
2018-06-21T19:03:25.461Z,1.40
2018-06-21T19:05:54.649Z,1.30
2018-06-21T19:08:29.300Z,1.20
2018-06-21T19:11:03.753Z,1.20
2018-06-21T19:13:32.860Z,1.37
2018-06-21T19:16:05.130Z,1.50
2018-06-21T19:18:34.261Z,1.50
2018-06-21T19:21:03.442Z,1.90
2018-06-21T19:23:32.619Z,1.43
2018-06-21T19:26:01.532Z,1.40
2018-06-21T19:28:31.150Z,1.50
2018-06-21T19:31:00.293Z,1.17
2018-06-21T19:33:29.445Z,1.87
2018-06-21T19:35:58.838Z,1.50
2018-06-21T19:38:28.262Z,1.20
2018-06-21T19:40:57.601Z,1.47
2018-06-21T19:43:26.793Z,1.30
2018-06-21T19:45:55.958Z,1.60
2018-06-21T19:48:25.212Z,1.40
2018-06-21T19:50:54.357Z,1.57
2018-06-21T19:53:23.526Z,1.60
2018-06-21T19:55:52.650Z,2.00
2018-06-21T19:58:21.840Z,1.80
2018-06-21T20:00:51.150Z,1.30
2018-06-21T20:03:20.345Z,1.40
2018-06-21T20:05:49.501Z,1.80
2018-06-21T20:08:18.626Z,1.83
2018-06-21T20:10:51.914Z,1.63
2018-06-21T20:13:21.080Z,1.70
2018-06-21T20:15:52.103Z,1.53
2018-06-21T20:18:22.114Z,1.73
2018-06-21T20:20:51.986Z,1.50
2018-06-21T20:23:21.453Z,1.20
2018-06-21T20:25:51.303Z,3.53
2018-06-21T20:28:20.525Z,1.70
2018-06-21T20:30:49.846Z,1.70
2018-06-21T20:33:19.123Z,1.40
2018-06-21T20:35:48.696Z,1.40
2018-06-21T20:38:17.815Z,1.30
2018-06-21T20:40:46.990Z,1.30
2018-06-21T20:43:16.332Z,1.47
2018-06-21T20:45:45.527Z,1.70
2018-06-21T20:48:15.062Z,1.33
2018-06-21T20:50:44.530Z,1.40
2018-06-21T20:53:13.668Z,1.60
2018-06-21T20:55:43.015Z,1.83
2018-06-21T20:58:12.231Z,1.70
2018-06-21T21:00:41.394Z,1.67
2018-06-21T21:03:10.808Z,1.40
2018-06-21T21:05:40.661Z,1.47
2018-06-21T21:08:09.780Z,1.30
2018-06-21T21:10:38.943Z,1.53
2018-06-21T21:13:08.084Z,1.43
2018-06-21T21:15:37.152Z,1.40
2018-06-21T21:18:06.315Z,1.90
2018-06-21T21:20:36.581Z,1.53
2018-06-21T21:23:05.869Z,1.60
2018-06-21T21:25:34.999Z,1.30
2018-06-21T21:28:04.164Z,1.30
2018-06-21T21:30:33.312Z,1.23
2018-06-21T21:33:02.471Z,1.80
2018-06-21T21:35:31.599Z,1.67
2018-06-21T21:38:00.815Z,1.50
2018-06-21T21:40:29.991Z,1.63
2018-06-21T21:42:59.150Z,1.30
2018-06-21T21:45:28.237Z,1.40
2018-06-21T21:47:57.408Z,1.47
2018-06-21T21:50:26.490Z,1.90
2018-06-21T21:52:55.640Z,1.73
2018-06-21T21:55:24.767Z,1.67
2018-06-21T21:57:53.889Z,1.53
2018-06-21T22:00:52.682Z,1.80
2018-06-21T22:03:21.757Z,1.50
2018-06-21T22:05:50.915Z,1.60
2018-06-21T22:08:20.010Z,1.37
2018-06-21T22:10:49.425Z,1.60
2018-06-21T22:13:18.997Z,1.80
2018-06-21T22:15:48.062Z,1.70
2018-06-21T22:18:17.190Z,1.67
2018-06-21T22:20:46.319Z,1.80
2018-06-21T22:23:15.474Z,1.70
2018-06-21T22:25:44.606Z,1.80
2018-06-21T22:28:13.701Z,1.87
2018-06-21T22:30:42.795Z,1.53
2018-06-21T22:33:11.921Z,1.57
2018-06-21T22:35:40.858Z,1.43
2018-06-21T22:38:09.912Z,1.70
2018-06-21T22:40:39.038Z,1.40
2018-06-21T22:43:08.153Z,1.43
2018-06-21T22:45:37.233Z,1.40
2018-06-21T22:48:06.321Z,1.47
2018-06-21T22:50:35.519Z,1.50
2018-06-21T22:53:04.697Z,1.97
2018-06-21T22:55:33.821Z,2.33
2018-06-21T22:58:02.990Z,1.60
2018-06-21T23:00:32.128Z,1.77
2018-06-21T23:03:01.217Z,1.50
2018-06-21T23:05:30.407Z,1.80
2018-06-21T23:07:59.590Z,1.60
2018-06-21T23:10:28.726Z,1.83
2018-06-21T23:12:57.873Z,2.40
2018-06-21T23:15:26.992Z,1.90
2018-06-21T23:17:56.054Z,1.40
2018-06-21T23:20:25.246Z,1.60
2018-06-21T23:22:54.399Z,1.60
2018-06-21T23:25:23.509Z,1.93
2018-06-21T23:27:52.574Z,2.67
2018-06-21T23:30:21.660Z,1.90
2018-06-21T23:32:50.842Z,1.97
2018-06-21T23:35:20.009Z,2.17
2018-06-21T23:37:49.187Z,1.70
2018-06-21T23:40:18.323Z,1.90
2018-06-21T23:42:47.462Z,1.80
2018-06-21T23:45:16.628Z,2.27
2018-06-21T23:47:45.753Z,1.90
2018-06-21T23:50:14.852Z,2.20
2018-06-21T23:52:44.011Z,2.00
2018-06-21T23:55:13.229Z,2.13
2018-06-21T23:57:42.342Z,2.87
